createdAt,value
2018-01-19T00:00:21.253Z,101
2018-01-19T00:01:26.839Z,76
2018-01-19T00:02:32.305Z,44
2018-01-19T00:03:38.329Z,73
2018-01-19T00:04:43.240Z,71
2018-01-19T00:05:48.723Z,75
2018-01-19T00:06:54.213Z,94
2018-01-19T00:07:59.675Z,104
2018-01-19T00:09:04.871Z,55
2018-01-19T00:10:10.737Z,62
2018-01-19T00:11:16.196Z,73
2018-01-19T00:12:21.396Z,66
2018-01-19T00:13:27.450Z,111
2018-01-19T00:14:32.904Z,84
2018-01-19T00:15:38.407Z,69
2018-01-19T00:16:43.884Z,101
2018-01-19T00:17:49.063Z,99
2018-01-19T00:18:54.267Z,67
2018-01-19T00:19:59.167Z,81
2018-01-19T00:21:04.667Z,85
2018-01-19T00:22:10.382Z,65
2018-01-19T00:23:15.873Z,77
2018-01-19T00:24:21.357Z,93
2018-01-19T00:25:41.430Z,83
2018-01-19T00:26:46.919Z,72
2018-01-19T00:27:52.169Z,92
2018-01-19T00:28:57.613Z,67
2018-01-19T00:30:03.086Z,41
2018-01-19T00:31:08.523Z,79
2018-01-19T00:32:13.435Z,80
2018-01-19T00:33:18.919Z,89
2018-01-19T00:34:24.361Z,73
2018-01-19T00:35:29.538Z,99
2018-01-19T00:36:35.224Z,101
2018-01-19T00:37:40.682Z,77
2018-01-19T00:38:46.129Z,61
2018-01-19T00:39:51.819Z,92
2018-01-19T00:40:57.053Z,92
2018-01-19T00:42:02.236Z,65
2018-01-19T00:43:07.668Z,60
2018-01-19T00:44:13.152Z,85
2018-01-19T00:45:18.616Z,127
2018-01-19T00:46:24.396Z,47
2018-01-19T00:47:29.847Z,93
2018-01-19T00:48:35.722Z,108
2018-01-19T00:49:40.615Z,78
2018-01-19T00:50:46.080Z,113
2018-01-19T00:51:51.313Z,89
2018-01-19T00:52:56.766Z,79
2018-01-19T00:54:02.263Z,112
2018-01-19T00:55:07.814Z,83
2018-01-19T00:56:13.280Z,100
2018-01-19T00:57:18.481Z,112
2018-01-19T00:58:24.214Z,72
2018-01-19T00:59:29.427Z,84
2018-01-19T01:00:35.182Z,76
2018-01-19T01:01:40.653Z,82
2018-01-19T01:02:46.104Z,125
2018-01-19T01:03:51.096Z,70
2018-01-19T01:04:56.565Z,73
2018-01-19T01:06:02.044Z,105
2018-01-19T01:07:07.598Z,120
2018-01-19T01:08:13.079Z,110
2018-01-19T01:09:18.554Z,99
2018-01-19T01:10:24.296Z,118
2018-01-19T01:11:29.502Z,114
2018-01-19T01:12:35.496Z,74
2018-01-19T01:13:40.963Z,125
2018-01-19T01:14:46.442Z,120
2018-01-19T01:15:52.414Z,86
2018-01-19T01:16:56.460Z,68
2018-01-19T01:18:01.615Z,99
2018-01-19T01:19:07.329Z,60
2018-01-19T01:20:12.518Z,74
2018-01-19T01:21:17.977Z,113
2018-01-19T01:22:23.711Z,99
2018-01-19T01:23:29.195Z,98
2018-01-19T01:24:34.903Z,72
2018-01-19T01:25:39.816Z,88
2018-01-19T01:26:45.282Z,67
2018-01-19T01:27:50.618Z,60
2018-01-19T01:28:55.239Z,84
2018-01-19T01:30:00.708Z,91
2018-01-19T01:31:05.852Z,77
2018-01-19T01:32:11.338Z,69
2018-01-19T01:33:16.286Z,59
2018-01-19T01:34:21.992Z,72
2018-01-19T01:35:27.182Z,52
2018-01-19T01:36:33.033Z,67
2018-01-19T01:37:38.507Z,58
2018-01-19T01:38:43.964Z,104
2018-01-19T01:39:49.672Z,91
2018-01-19T01:40:54.844Z,63
2018-01-19T01:42:00.317Z,77
2018-01-19T01:43:05.199Z,88
2018-01-19T01:44:10.693Z,80
2018-01-19T01:45:15.910Z,104
2018-01-19T01:46:21.669Z,101
2018-01-19T01:47:26.870Z,73
2018-01-19T01:48:32.550Z,72
2018-01-19T01:49:38.022Z,45
2018-01-19T01:50:42.677Z,46
2018-01-19T01:51:48.416Z,78
2018-01-19T01:52:53.584Z,127
2018-01-19T01:53:58.792Z,90
2018-01-19T01:55:03.680Z,38
2018-01-19T01:56:08.618Z,63
2018-01-19T01:57:13.501Z,55
2018-01-19T01:58:19.315Z,55
2018-01-19T01:59:24.567Z,50
2018-01-19T02:00:30.192Z,48
2018-01-19T02:01:35.400Z,35
2018-01-19T02:02:40.876Z,53
2018-01-19T02:03:46.420Z,40
2018-01-19T02:04:51.043Z,63
2018-01-19T02:05:56.515Z,57
2018-01-19T02:07:02.359Z,42
2018-01-19T02:08:07.568Z,38
2018-01-19T02:09:12.748Z,83
2018-01-19T02:10:18.185Z,62
2018-01-19T02:11:23.682Z,61
2018-01-19T02:12:29.441Z,43
2018-01-19T02:13:34.904Z,92
2018-01-19T02:14:40.093Z,75
2018-01-19T02:15:45.817Z,43
2018-01-19T02:16:51.001Z,52
2018-01-19T02:17:56.185Z,35
2018-01-19T02:19:01.905Z,60
2018-01-19T02:20:06.528Z,88
2018-01-19T02:21:12.060Z,51
2018-01-19T02:22:17.370Z,57
2018-01-19T02:23:22.840Z,46
2018-01-19T02:24:28.666Z,68
2018-01-19T02:25:34.112Z,40
2018-01-19T02:26:39.319Z,88
2018-01-19T02:27:45.119Z,93
2018-01-19T02:28:50.346Z,69
2018-01-19T02:29:55.525Z,35
2018-01-19T02:31:01.528Z,55
2018-01-19T02:32:06.419Z,84
2018-01-19T02:33:11.882Z,87
2018-01-19T02:34:17.292Z,79
2018-01-19T02:35:22.482Z,38
2018-01-19T02:36:28.136Z,88
2018-01-19T02:37:33.363Z,60
2018-01-19T02:38:38.830Z,54
2018-01-19T02:39:44.869Z,65
2018-01-19T02:40:50.080Z,54
2018-01-19T02:41:55.574Z,56
2018-01-19T02:43:01.285Z,65
2018-01-19T02:44:06.221Z,72
2018-01-19T02:45:11.459Z,77
2018-01-19T02:46:17.192Z,50
2018-01-19T02:47:22.666Z,81
2018-01-19T02:48:28.100Z,81
2018-01-19T02:49:33.588Z,94
2018-01-19T02:50:38.794Z,47
2018-01-19T02:51:44.525Z,74
2018-01-19T02:52:49.716Z,53
2018-01-19T02:53:54.630Z,70
2018-01-19T02:55:00.357Z,57
2018-01-19T02:56:05.253Z,25
2018-01-19T02:57:10.434Z,55
2018-01-19T02:58:16.249Z,73
2018-01-19T02:59:21.711Z,47
2018-01-19T03:00:42.646Z,76
2018-01-19T03:01:47.810Z,88
2018-01-19T03:02:53.019Z,48
2018-01-19T03:03:58.157Z,61
2018-01-19T03:05:03.336Z,26
2018-01-19T03:06:08.247Z,33
2018-01-19T03:07:14.071Z,62
2018-01-19T03:08:18.954Z,44
2018-01-19T03:09:39.386Z,116
2018-01-19T03:10:44.586Z,73
2018-01-19T03:11:49.523Z,111
2018-01-19T03:12:54.689Z,47
2018-01-19T03:14:00.170Z,78
2018-01-19T03:15:05.051Z,78
2018-01-19T03:16:10.290Z,27
2018-01-19T03:17:15.788Z,24
2018-01-19T03:18:21.272Z,92
2018-01-19T03:19:26.186Z,59
2018-01-19T03:20:31.674Z,61
2018-01-19T03:21:37.494Z,70
2018-01-19T03:22:42.671Z,57
2018-01-19T03:23:48.129Z,27
2018-01-19T03:24:53.663Z,55
2018-01-19T03:25:58.858Z,35
2018-01-19T03:27:04.054Z,34
2018-01-19T03:28:09.516Z,90
2018-01-19T03:29:14.440Z,52
2018-01-19T03:30:19.899Z,131
2018-01-19T03:31:25.652Z,56
2018-01-19T03:32:31.144Z,61
2018-01-19T03:33:36.427Z,47
2018-01-19T03:34:41.589Z,55
2018-01-19T03:35:46.789Z,30
2018-01-19T03:36:51.917Z,62
2018-01-19T03:37:57.394Z,75
2018-01-19T03:39:02.838Z,54
2018-01-19T03:40:08.366Z,42
2018-01-19T03:41:13.264Z,61
2018-01-19T03:42:18.736Z,84
2018-01-19T03:43:23.992Z,80
2018-01-19T03:44:29.183Z,13
2018-01-19T03:45:34.788Z,77
2018-01-19T03:46:40.268Z,57
2018-01-19T03:47:45.742Z,105
2018-01-19T03:48:51.463Z,67
2018-01-19T03:49:56.917Z,48
2018-01-19T03:51:02.365Z,128
2018-01-19T03:52:07.877Z,111
2018-01-19T03:53:13.340Z,34
2018-01-19T03:54:18.810Z,68
2018-01-19T03:55:24.662Z,59
2018-01-19T03:56:29.832Z,56
2018-01-19T03:57:35.637Z,46
2018-01-19T03:58:41.145Z,48
2018-01-19T03:59:46.619Z,107
2018-01-19T04:00:51.184Z,50
2018-01-19T04:01:56.375Z,34
2018-01-19T04:03:01.583Z,45
2018-01-19T04:04:07.133Z,78
2018-01-19T04:05:12.606Z,82
2018-01-19T04:06:18.070Z,71
2018-01-19T04:07:23.880Z,58
2018-01-19T04:08:29.203Z,62
2018-01-19T04:09:35.076Z,52
2018-01-19T04:10:40.566Z,55
2018-01-19T04:11:45.746Z,67
2018-01-19T04:12:51.192Z,71
2018-01-19T04:13:56.682Z,35
2018-01-19T04:15:02.242Z,78
2018-01-19T04:16:07.112Z,16
2018-01-19T04:17:12.595Z,82
2018-01-19T04:18:18.077Z,42
2018-01-19T04:19:23.798Z,67
2018-01-19T04:20:29.019Z,45
2018-01-19T04:21:34.852Z,28
2018-01-19T04:22:40.036Z,81
2018-01-19T04:23:45.545Z,14
2018-01-19T04:24:50.696Z,82
2018-01-19T04:25:55.651Z,107
2018-01-19T04:27:01.148Z,53
2018-01-19T04:28:06.579Z,42
2018-01-19T04:29:11.480Z,58
2018-01-19T04:30:16.935Z,72
2018-01-19T04:31:22.480Z,30
2018-01-19T04:32:27.958Z,66
2018-01-19T04:33:33.677Z,77
2018-01-19T04:34:38.907Z,44
2018-01-19T04:35:44.371Z,54
2018-01-19T04:36:49.896Z,78
2018-01-19T04:37:55.368Z,28
2018-01-19T04:39:00.856Z,45
2018-01-19T04:40:05.848Z,79
2018-01-19T04:41:11.319Z,80
2018-01-19T04:42:16.804Z,46
2018-01-19T04:43:22.509Z,65
2018-01-19T04:44:27.689Z,60
2018-01-19T04:45:33.865Z,27
2018-01-19T04:46:39.330Z,57
2018-01-19T04:47:44.813Z,77
2018-01-19T04:48:50.181Z,49
2018-01-19T04:49:55.645Z,59
2018-01-19T04:51:01.098Z,65
2018-01-19T04:52:06.344Z,58
2018-01-19T04:53:11.538Z,32
2018-01-19T04:54:16.998Z,69
2018-01-19T04:55:22.770Z,73
2018-01-19T04:56:28.235Z,50
2018-01-19T04:57:33.189Z,58
2018-01-19T04:58:38.363Z,53
2018-01-19T04:59:43.533Z,84
2018-01-19T05:00:49.024Z,27
2018-01-19T05:01:54.203Z,66
2018-01-19T05:02:59.378Z,43
2018-01-19T05:04:05.012Z,23
2018-01-19T05:05:10.483Z,66
2018-01-19T05:06:15.996Z,40
2018-01-19T05:07:21.889Z,55
2018-01-19T05:08:27.363Z,57
2018-01-19T05:09:33.377Z,128
2018-01-19T05:10:38.850Z,105
2018-01-19T05:11:44.317Z,31
2018-01-19T05:12:49.644Z,101
2018-01-19T05:13:54.848Z,60
2018-01-19T05:15:00.346Z,75
2018-01-19T05:16:05.548Z,45
2018-01-19T05:17:10.447Z,68
2018-01-19T05:18:15.926Z,125
2018-01-19T05:19:21.697Z,77
2018-01-19T05:20:26.868Z,33
2018-01-19T05:21:32.702Z,31
2018-01-19T05:22:37.588Z,77
2018-01-19T05:23:43.050Z,103
2018-01-19T05:24:48.783Z,86
2018-01-19T05:25:53.691Z,124
2018-01-19T05:26:59.198Z,33
2018-01-19T05:28:04.369Z,52
2018-01-19T05:29:09.275Z,30
2018-01-19T05:30:14.149Z,60
2018-01-19T05:31:19.615Z,38
2018-01-19T05:32:25.070Z,33
2018-01-19T05:33:30.814Z,39
2018-01-19T05:34:36.281Z,95
2018-01-19T05:35:41.454Z,60
2018-01-19T05:36:47.191Z,67
2018-01-19T05:37:52.094Z,32
2018-01-19T05:38:57.565Z,66
2018-01-19T05:40:02.932Z,35
2018-01-19T05:41:07.830Z,53
2018-01-19T05:42:13.023Z,75
2018-01-19T05:43:18.461Z,59
2018-01-19T05:44:23.905Z,58
2018-01-19T05:45:29.795Z,95
2018-01-19T05:46:35.259Z,20
2018-01-19T05:47:40.458Z,68
2018-01-19T05:48:46.169Z,87
2018-01-19T05:49:51.096Z,90
2018-01-19T05:50:56.562Z,53
2018-01-19T05:52:02.136Z,69
2018-01-19T05:53:06.767Z,71
2018-01-19T05:54:11.928Z,104
2018-01-19T05:55:17.641Z,53
2018-01-19T05:56:23.110Z,126
2018-01-19T05:57:29.150Z,27
2018-01-19T05:58:34.050Z,40
2018-01-19T05:59:39.236Z,109
2018-01-19T06:00:44.762Z,56
2018-01-19T06:01:49.655Z,42
2018-01-19T06:02:55.115Z,66
2018-01-19T06:04:00.831Z,48
2018-01-19T06:05:06.009Z,92
2018-01-19T06:06:10.927Z,110
2018-01-19T06:07:16.742Z,64
2018-01-19T06:08:22.227Z,105
2018-01-19T06:09:28.117Z,104
2018-01-19T06:10:33.310Z,103
2018-01-19T06:11:38.212Z,47
2018-01-19T06:12:44.085Z,89
2018-01-19T06:13:49.278Z,96
2018-01-19T06:14:54.488Z,31
2018-01-19T06:15:59.681Z,102
2018-01-19T06:17:05.333Z,78
2018-01-19T06:18:10.517Z,124
2018-01-19T06:19:15.664Z,94
2018-01-19T06:20:21.115Z,60
2018-01-19T06:21:41.211Z,61
2018-01-19T06:22:46.651Z,124
2018-01-19T06:23:51.833Z,96
2018-01-19T06:24:57.660Z,93
2018-01-19T06:26:02.574Z,18
2018-01-19T06:27:07.510Z,48
2018-01-19T06:28:13.227Z,68
2018-01-19T06:29:18.731Z,49
2018-01-19T06:30:24.212Z,57
2018-01-19T06:31:29.467Z,34
2018-01-19T06:32:34.970Z,14
2018-01-19T06:33:40.744Z,47
2018-01-19T06:34:46.220Z,64
2018-01-19T06:35:51.057Z,92
2018-01-19T06:36:56.310Z,41
2018-01-19T06:38:01.802Z,9
2018-01-19T06:39:07.280Z,55
2018-01-19T06:40:13.001Z,31
2018-01-19T06:41:18.472Z,88
2018-01-19T06:43:44.384Z,37
2018-01-19T06:44:49.582Z,30
2018-01-19T06:45:55.308Z,57
2018-01-19T06:47:00.779Z,11
2018-01-19T06:48:05.953Z,15
2018-01-19T06:49:11.479Z,47
2018-01-19T06:50:16.696Z,102
2018-01-19T06:51:22.160Z,65
2018-01-19T06:52:28.030Z,34
2018-01-19T06:53:33.490Z,63
2018-01-19T06:54:38.787Z,47
2018-01-19T06:55:44.000Z,22
2018-01-19T06:56:49.447Z,43
2018-01-19T06:57:54.988Z,47
2018-01-19T06:59:00.139Z,38
2018-01-19T07:00:05.312Z,89
2018-01-19T07:01:10.549Z,27
2018-01-19T07:02:15.738Z,40
2018-01-19T07:03:21.206Z,117
2018-01-19T07:04:25.524Z,52
2018-01-19T07:05:30.710Z,36
2018-01-19T07:06:36.436Z,101
2018-01-19T07:07:41.926Z,27
2018-01-19T07:08:47.435Z,14
2018-01-19T07:09:52.675Z,57
2018-01-19T07:10:57.857Z,31
2018-01-19T07:12:02.747Z,31
2018-01-19T07:13:08.323Z,46
2018-01-19T07:14:13.801Z,45
2018-01-19T07:15:19.261Z,19
2018-01-19T07:16:24.466Z,34
2018-01-19T07:17:29.921Z,73
2018-01-19T07:18:35.624Z,32
2018-01-19T07:19:41.108Z,34
2018-01-19T07:20:46.580Z,42
2018-01-19T07:21:51.541Z,50
2018-01-19T07:22:56.712Z,45
2018-01-19T07:24:02.171Z,88
2018-01-19T07:25:07.747Z,56
2018-01-19T07:26:13.210Z,43
2018-01-19T07:27:18.682Z,87
2018-01-19T07:28:24.235Z,57
2018-01-19T07:29:29.683Z,21
2018-01-19T07:30:35.413Z,29
2018-01-19T07:31:40.612Z,4
2018-01-19T07:32:45.802Z,17
2018-01-19T07:33:51.402Z,87
2018-01-19T07:34:56.382Z,36
2018-01-19T07:36:01.284Z,85
2018-01-19T07:37:07.213Z,32
2018-01-19T07:38:12.648Z,56
2018-01-19T07:39:17.542Z,65
2018-01-19T07:40:22.766Z,12
2018-01-19T07:41:28.240Z,49
2018-01-19T07:42:34.375Z,83
2018-01-19T07:43:39.539Z,105
2018-01-19T07:44:44.993Z,19
2018-01-19T07:45:50.189Z,16
2018-01-19T07:46:55.661Z,82
2018-01-19T07:48:01.280Z,49
2018-01-19T07:49:06.198Z,35
2018-01-19T07:50:11.398Z,72
2018-01-19T07:51:16.861Z,67
2018-01-19T07:52:22.049Z,30
2018-01-19T07:53:27.877Z,42
2018-01-19T07:54:32.947Z,36
2018-01-19T07:55:38.142Z,97
2018-01-19T07:56:43.607Z,113
2018-01-19T07:57:48.827Z,81
2018-01-19T07:58:53.643Z,42
2018-01-19T07:59:58.583Z,60
2018-01-19T08:01:04.067Z,36
2018-01-19T08:02:09.536Z,81
2018-01-19T08:03:15.007Z,59
2018-01-19T08:04:20.479Z,74
2018-01-19T08:05:25.673Z,78
2018-01-19T08:06:31.679Z,61
2018-01-19T08:07:37.187Z,53
2018-01-19T08:08:42.378Z,59
2018-01-19T08:09:47.903Z,57
2018-01-19T08:10:52.845Z,90
2018-01-19T08:11:58.026Z,75
2018-01-19T08:13:03.606Z,92
2018-01-19T08:14:08.821Z,115
2018-01-19T08:15:14.012Z,67
2018-01-19T08:16:19.185Z,63
2018-01-19T08:17:24.664Z,26
2018-01-19T08:18:30.256Z,24
2018-01-19T08:19:35.459Z,104
2018-01-19T08:20:40.646Z,92
2018-01-19T08:21:45.777Z,90
2018-01-19T08:22:50.686Z,79
2018-01-19T08:23:56.155Z,108
2018-01-19T08:25:01.591Z,74
2018-01-19T08:26:06.506Z,32
2018-01-19T08:27:11.647Z,45
2018-01-19T08:28:16.789Z,104
2018-01-19T08:29:21.950Z,94
2018-01-19T08:30:27.559Z,75
2018-01-19T08:31:33.025Z,98
2018-01-19T08:32:37.920Z,83
2018-01-19T08:33:43.368Z,107
2018-01-19T08:34:48.848Z,78
2018-01-19T08:35:53.733Z,111
2018-01-19T08:36:58.933Z,62
2018-01-19T08:38:03.858Z,59
2018-01-19T08:39:09.044Z,125
2018-01-19T08:40:14.479Z,92
2018-01-19T08:41:19.375Z,83
2018-01-19T08:42:39.794Z,98
2018-01-19T08:43:45.277Z,150
2018-01-19T08:44:50.479Z,79
2018-01-19T08:45:56.296Z,140
2018-01-19T08:47:01.822Z,103
2018-01-19T08:48:06.750Z,135
2018-01-19T08:49:12.574Z,95
2018-01-19T08:50:17.977Z,77
2018-01-19T08:51:23.167Z,80
2018-01-19T08:52:29.056Z,110
2018-01-19T08:53:34.530Z,153
2018-01-19T08:54:40.360Z,96
2018-01-19T08:55:45.843Z,84
2018-01-19T08:56:50.472Z,51
2018-01-19T08:57:55.670Z,105
2018-01-19T08:59:00.876Z,114
2018-01-19T09:00:06.053Z,126
2018-01-19T09:01:10.956Z,180
2018-01-19T09:02:15.861Z,103
2018-01-19T09:03:21.343Z,145
2018-01-19T09:04:26.535Z,138
2018-01-19T09:05:31.996Z,174
2018-01-19T09:06:37.759Z,150
2018-01-19T09:07:42.940Z,37
2018-01-19T09:08:48.615Z,154
2018-01-19T09:09:53.869Z,153
2018-01-19T09:10:58.480Z,132
2018-01-19T09:12:03.716Z,202
2018-01-19T09:13:09.191Z,182
2018-01-19T09:14:14.978Z,152
2018-01-19T09:15:19.916Z,98
2018-01-19T09:16:25.639Z,214
2018-01-19T09:17:30.826Z,190
2018-01-19T09:18:36.716Z,213
2018-01-19T09:19:43.374Z,171
2018-01-19T09:20:48.561Z,181
2018-01-19T09:21:54.056Z,219
2018-01-19T09:22:58.971Z,169
2018-01-19T09:24:04.542Z,169
2018-01-19T09:25:10.299Z,171
2018-01-19T09:26:15.692Z,189
2018-01-19T09:27:20.880Z,225
2018-01-19T09:28:26.311Z,161
2018-01-19T09:29:31.782Z,178
2018-01-19T09:30:37.303Z,183
2018-01-19T09:31:42.942Z,226
2018-01-19T09:32:48.120Z,184
2018-01-19T09:33:53.897Z,232
2018-01-19T09:34:59.514Z,170
2018-01-19T09:36:04.984Z,172
2018-01-19T09:37:10.467Z,116
2018-01-19T09:38:15.929Z,206
2018-01-19T09:39:21.386Z,170
2018-01-19T09:40:26.542Z,163
2018-01-19T09:41:32.007Z,97
2018-01-19T09:42:37.449Z,188
2018-01-19T09:43:43.104Z,224
2018-01-19T09:44:48.286Z,279
2018-01-19T09:45:54.024Z,187
2018-01-19T09:46:59.542Z,244
2018-01-19T09:48:04.802Z,218
2018-01-19T09:49:10.008Z,254
2018-01-19T09:50:15.480Z,231
2018-01-19T09:51:20.363Z,168
2018-01-19T09:52:25.600Z,255
2018-01-19T09:53:31.214Z,236
2018-01-19T09:54:37.035Z,230
2018-01-19T09:55:42.557Z,178
2018-01-19T09:56:48.042Z,238
2018-01-19T09:57:53.176Z,190
2018-01-19T09:58:58.341Z,199
2018-01-19T10:00:03.568Z,205
2018-01-19T10:01:09.329Z,246
2018-01-19T10:02:15.129Z,211
2018-01-19T10:03:20.595Z,193
2018-01-19T10:04:25.748Z,246
2018-01-19T10:05:30.654Z,195
2018-01-19T10:06:36.340Z,208
2018-01-19T10:07:41.831Z,230
2018-01-19T10:08:47.009Z,232
2018-01-19T10:09:52.548Z,273
2018-01-19T10:10:58.036Z,170
2018-01-19T10:12:03.490Z,286
2018-01-19T10:13:08.661Z,253
2018-01-19T10:14:14.304Z,197
2018-01-19T10:15:19.505Z,242
2018-01-19T10:16:25.244Z,260
2018-01-19T10:17:30.133Z,244
2018-01-19T10:18:35.610Z,288
2018-01-19T10:19:40.571Z,244
2018-01-19T10:20:45.766Z,246
2018-01-19T10:21:50.933Z,276
2018-01-19T10:22:56.416Z,213
2018-01-19T10:24:01.882Z,327
2018-01-19T10:25:07.404Z,253
2018-01-19T10:26:12.585Z,201
2018-01-19T10:27:17.751Z,241
2018-01-19T10:28:23.763Z,257
2018-01-19T10:29:29.231Z,198
2018-01-19T10:30:35.035Z,310
2018-01-19T10:31:40.499Z,260
2018-01-19T10:32:45.687Z,240
2018-01-19T10:33:50.662Z,303
2018-01-19T10:34:55.845Z,290
2018-01-19T10:36:01.038Z,247
2018-01-19T10:37:06.832Z,338
2018-01-19T10:38:11.723Z,268
2018-01-19T10:39:16.616Z,259
2018-01-19T10:40:22.208Z,262
2018-01-19T10:41:27.898Z,272
2018-01-19T10:42:32.765Z,249
2018-01-19T10:43:37.987Z,276
2018-01-19T10:44:43.506Z,292
2018-01-19T10:45:49.486Z,338
2018-01-19T10:46:54.940Z,321
2018-01-19T10:48:00.429Z,310
2018-01-19T10:49:05.963Z,298
2018-01-19T10:50:11.426Z,260
2018-01-19T10:51:16.589Z,294
2018-01-19T10:52:22.211Z,272
2018-01-19T10:53:27.404Z,305
2018-01-19T10:54:33.159Z,346
2018-01-19T10:55:38.629Z,230
2018-01-19T10:56:43.822Z,312
2018-01-19T10:57:49.265Z,297
2018-01-19T10:58:54.720Z,317
2018-01-19T11:00:00.196Z,246
2018-01-19T11:01:05.387Z,246
2018-01-19T11:02:10.601Z,257
2018-01-19T11:03:16.081Z,283
2018-01-19T11:04:21.380Z,297
2018-01-19T11:05:26.478Z,298
2018-01-19T11:06:32.613Z,248
2018-01-19T11:07:37.809Z,317
2018-01-19T11:08:43.007Z,276
2018-01-19T11:09:48.530Z,231
2018-01-19T11:10:53.786Z,329
2018-01-19T11:11:59.170Z,267
2018-01-19T11:13:04.885Z,332
2018-01-19T11:14:09.812Z,265
2018-01-19T11:15:15.176Z,243
2018-01-19T11:16:20.730Z,316
2018-01-19T11:17:25.620Z,288
2018-01-19T11:18:31.346Z,228
2018-01-19T11:19:36.523Z,225
2018-01-19T11:20:41.432Z,305
2018-01-19T11:21:47.219Z,255
2018-01-19T11:22:52.427Z,291
2018-01-19T11:23:57.892Z,265
2018-01-19T11:25:03.382Z,232
2018-01-19T11:26:08.854Z,312
2018-01-19T11:27:14.541Z,312
2018-01-19T11:28:20.400Z,300
2018-01-19T11:29:25.331Z,218
2018-01-19T11:30:31.150Z,266
2018-01-19T11:31:36.538Z,287
2018-01-19T11:32:41.623Z,290
2018-01-19T11:33:47.347Z,269
2018-01-19T11:34:52.436Z,326
2018-01-19T11:35:57.959Z,282
2018-01-19T11:37:03.785Z,286
2018-01-19T11:38:08.705Z,276
2018-01-19T11:39:14.175Z,286
2018-01-19T11:40:20.240Z,268
2018-01-19T11:41:25.721Z,253
2018-01-19T11:42:31.448Z,237
2018-01-19T11:43:36.924Z,311
2018-01-19T11:44:42.104Z,235
2018-01-19T11:45:47.597Z,280
2018-01-19T11:46:52.499Z,230
2018-01-19T11:47:57.973Z,192
2018-01-19T11:49:03.417Z,204
2018-01-19T11:50:08.053Z,304
2018-01-19T11:51:13.515Z,326
2018-01-19T11:52:19.343Z,216
2018-01-19T11:53:24.514Z,284
2018-01-19T11:54:30.487Z,270
2018-01-19T11:55:35.952Z,285
2018-01-19T11:56:41.151Z,265
2018-01-19T11:57:46.659Z,259
2018-01-19T11:58:51.423Z,296
2018-01-19T11:59:56.035Z,239
2018-01-19T12:01:01.871Z,198
2018-01-19T12:02:06.506Z,242
2018-01-19T12:03:12.002Z,213
2018-01-19T12:04:17.760Z,257
2018-01-19T12:05:22.941Z,278
2018-01-19T12:06:29.039Z,251
2018-01-19T12:07:34.512Z,294
2018-01-19T12:08:39.984Z,265
2018-01-19T12:09:45.529Z,280
2018-01-19T12:10:50.181Z,272
2018-01-19T12:11:55.402Z,256
2018-01-19T12:13:00.853Z,257
2018-01-19T12:14:06.324Z,287
2018-01-19T12:15:11.494Z,233
2018-01-19T12:16:16.695Z,224
2018-01-19T12:17:22.371Z,275
2018-01-19T12:18:28.174Z,261
2018-01-19T12:19:33.346Z,282
2018-01-19T12:20:38.828Z,220
2018-01-19T12:21:44.582Z,145
2018-01-19T12:22:50.392Z,200
2018-01-19T12:23:55.863Z,180
2018-01-19T12:25:01.323Z,271
2018-01-19T12:26:06.791Z,242
2018-01-19T12:27:12.268Z,304
2018-01-19T12:28:18.004Z,265
2018-01-19T12:29:23.494Z,312
2018-01-19T12:30:43.596Z,271
2018-01-19T12:31:49.057Z,275
2018-01-19T12:32:54.239Z,210
2018-01-19T12:34:00.157Z,229
2018-01-19T12:35:05.331Z,192
2018-01-19T12:36:10.215Z,213
2018-01-19T12:37:15.648Z,209
2018-01-19T12:38:21.114Z,238
2018-01-19T12:39:41.555Z,226
2018-01-19T12:40:47.027Z,273
2018-01-19T12:41:52.364Z,243
2018-01-19T12:42:58.083Z,220
2018-01-19T12:44:03.291Z,272
2018-01-19T12:45:08.757Z,231
2018-01-19T12:46:14.600Z,247
2018-01-19T12:47:20.074Z,235
2018-01-19T12:48:40.482Z,282
2018-01-19T12:49:45.949Z,202
2018-01-19T12:50:50.570Z,196
2018-01-19T12:51:56.108Z,202
2018-01-19T12:53:01.146Z,206
2018-01-19T12:54:06.622Z,234
2018-01-19T12:55:12.070Z,212
2018-01-19T12:56:17.698Z,203
2018-01-19T12:57:23.155Z,299
2018-01-19T12:58:29.442Z,207
2018-01-19T12:59:34.951Z,210
2018-01-19T13:00:40.765Z,273
2018-01-19T13:01:45.939Z,274
2018-01-19T13:02:51.141Z,220
2018-01-19T13:03:56.773Z,227
2018-01-19T13:05:01.950Z,259
2018-01-19T13:06:06.887Z,241
2018-01-19T13:07:12.766Z,222
2018-01-19T13:08:17.952Z,273
2018-01-19T13:09:23.443Z,215
2018-01-19T13:10:29.292Z,237
2018-01-19T13:11:34.762Z,197
2018-01-19T13:12:40.738Z,223
2018-01-19T13:13:46.219Z,214
2018-01-19T13:14:51.124Z,204
2018-01-19T13:15:56.650Z,160
2018-01-19T13:17:01.824Z,217
2018-01-19T13:18:07.298Z,238
2018-01-19T13:19:12.787Z,253
2018-01-19T13:20:18.305Z,229
2018-01-19T13:21:23.764Z,139
2018-01-19T13:22:29.273Z,208
2018-01-19T13:23:34.187Z,252
2018-01-19T13:24:39.556Z,244
2018-01-19T13:25:44.744Z,248
2018-01-19T13:26:49.362Z,217
2018-01-19T13:27:54.784Z,181
2018-01-19T13:29:00.254Z,172
2018-01-19T13:30:04.907Z,244
2018-01-19T13:31:10.564Z,176
2018-01-19T13:32:16.398Z,169
2018-01-19T13:33:21.888Z,175
2018-01-19T13:34:27.170Z,217
2018-01-19T13:35:32.350Z,216
2018-01-19T13:36:37.798Z,181
2018-01-19T13:37:43.271Z,247
2018-01-19T13:38:48.492Z,209
2018-01-19T13:39:53.640Z,254
2018-01-19T13:40:58.543Z,222
2018-01-19T13:42:03.156Z,203
2018-01-19T13:43:08.387Z,225
2018-01-19T13:44:13.876Z,249
2018-01-19T13:45:19.438Z,237
2018-01-19T13:46:24.646Z,210
2018-01-19T13:47:30.122Z,246
2018-01-19T13:48:35.865Z,212
2018-01-19T13:49:41.295Z,288
2018-01-19T13:50:46.936Z,246
2018-01-19T13:51:52.708Z,221
2018-01-19T13:52:57.891Z,155
2018-01-19T13:54:03.342Z,185
2018-01-19T13:55:09.053Z,256
2018-01-19T13:56:14.519Z,205
2018-01-19T13:57:19.156Z,213
2018-01-19T13:58:24.350Z,238
2018-01-19T13:59:29.567Z,198
2018-01-19T14:00:35.286Z,200
2018-01-19T14:01:40.752Z,209
2018-01-19T14:02:46.245Z,180
2018-01-19T14:03:51.682Z,142
2018-01-19T14:04:56.579Z,216
2018-01-19T14:06:01.453Z,167
2018-01-19T14:07:06.890Z,225
2018-01-19T14:08:12.397Z,148
2018-01-19T14:09:17.783Z,207
2018-01-19T14:10:23.519Z,194
2018-01-19T14:11:29.358Z,213
2018-01-19T14:12:35.181Z,168
2018-01-19T14:13:40.637Z,212
2018-01-19T14:14:45.759Z,168
2018-01-19T14:15:50.900Z,221
2018-01-19T14:16:55.812Z,220
2018-01-19T14:18:00.992Z,123
2018-01-19T14:19:06.541Z,263
2018-01-19T14:20:11.990Z,223
2018-01-19T14:21:17.195Z,256
2018-01-19T14:22:22.630Z,190
2018-01-19T14:23:28.133Z,229
2018-01-19T14:24:33.302Z,225
2018-01-19T14:25:38.780Z,191
2018-01-19T14:26:43.667Z,197
2018-01-19T14:27:49.486Z,160
2018-01-19T14:28:54.671Z,145
2018-01-19T14:29:59.934Z,201
2018-01-19T14:31:05.667Z,180
2018-01-19T14:32:10.907Z,179
2018-01-19T14:33:16.106Z,193
2018-01-19T14:34:21.645Z,136
2018-01-19T14:35:27.430Z,195
2018-01-19T14:36:32.913Z,212
2018-01-19T14:37:37.821Z,217
2018-01-19T14:38:43.004Z,207
2018-01-19T14:39:48.721Z,269
2018-01-19T14:40:53.660Z,157
2018-01-19T14:41:59.078Z,183
2018-01-19T14:43:04.815Z,193
2018-01-19T14:44:09.999Z,197
2018-01-19T14:45:15.193Z,174
2018-01-19T14:46:20.910Z,190
2018-01-19T14:47:25.801Z,192
2018-01-19T14:48:31.034Z,238
2018-01-19T14:49:36.515Z,184
2018-01-19T14:50:41.740Z,198
2018-01-19T14:51:47.500Z,180
2018-01-19T14:52:52.415Z,193
2018-01-19T14:53:57.881Z,158
2018-01-19T14:55:03.883Z,202
2018-01-19T14:56:08.979Z,222
2018-01-19T14:57:13.846Z,191
2018-01-19T14:58:19.368Z,213
2018-01-19T14:59:24.289Z,262
2018-01-19T15:00:29.730Z,206
2018-01-19T15:01:35.323Z,207
2018-01-19T15:02:40.790Z,260
2018-01-19T15:03:46.255Z,235
2018-01-19T15:04:51.742Z,158
2018-01-19T15:05:56.908Z,163
2018-01-19T15:07:02.450Z,165
2018-01-19T15:08:07.615Z,190
2018-01-19T15:09:13.120Z,206
2018-01-19T15:10:18.815Z,218
2018-01-19T15:11:24.304Z,163
2018-01-19T15:12:29.554Z,170
2018-01-19T15:13:35.032Z,137
2018-01-19T15:14:40.196Z,138
2018-01-19T15:15:45.894Z,173
2018-01-19T15:16:51.091Z,197
2018-01-19T15:17:55.994Z,123
2018-01-19T15:19:01.496Z,169